createdAt,value
2022-09-26T00:02:04.000Z,98027
2022-09-26T00:03:31.000Z,98026
2022-09-26T00:05:37.000Z,98027
2022-09-26T00:07:04.000Z,98026
2022-09-26T00:09:10.000Z,98027
2022-09-26T00:10:36.000Z,98027
2022-09-26T00:12:43.000Z,98026
2022-09-26T00:15:34.000Z,98031
2022-09-26T00:17:00.000Z,98028
2022-09-26T00:19:06.000Z,98025
2022-09-26T00:20:33.000Z,98028
2022-09-26T00:22:39.000Z,98032
2022-09-26T00:24:06.000Z,98028
2022-09-26T00:26:12.000Z,98023
2022-09-26T00:27:38.000Z,98020
2022-09-26T00:29:44.000Z,98015
2022-09-26T00:31:11.000Z,98014
2022-09-26T00:33:17.000Z,98008
2022-09-26T00:34:44.000Z,98008
2022-09-26T00:36:50.000Z,98007
2022-09-26T00:38:16.000Z,98011
2022-09-26T00:40:22.000Z,98005
2022-09-26T00:41:49.000Z,98004
2022-09-26T00:43:55.000Z,98006
2022-09-26T00:45:21.000Z,98005
2022-09-26T00:47:27.000Z,97999
2022-09-26T00:48:54.000Z,98003
2022-09-26T00:51:00.000Z,98001
2022-09-26T00:53:51.000Z,98001
2022-09-26T00:55:17.000Z,97998
2022-09-26T00:57:23.000Z,97996
2022-09-26T00:58:50.000Z,97997
2022-09-26T01:00:56.000Z,97994
2022-09-26T01:02:23.000Z,97996
2022-09-26T01:04:29.000Z,97990
2022-09-26T01:05:56.000Z,97989
2022-09-26T01:08:02.000Z,97986
2022-09-26T01:09:28.000Z,97984
2022-09-26T01:11:34.000Z,97974
2022-09-26T01:13:01.000Z,97976
2022-09-26T01:15:07.000Z,97971
2022-09-26T01:16:34.000Z,97973
2022-09-26T01:18:40.000Z,97964
2022-09-26T01:20:06.000Z,97968
2022-09-26T01:22:12.000Z,97961
2022-09-26T01:23:39.000Z,97961
2022-09-26T01:25:45.000Z,97957
2022-09-26T01:27:12.000Z,97959
2022-09-26T01:29:18.000Z,97956
2022-09-26T01:32:09.000Z,97956
2022-09-26T01:33:36.000Z,97953
2022-09-26T01:35:42.000Z,97951
2022-09-26T01:37:08.000Z,97948
2022-09-26T01:39:14.000Z,97947
2022-09-26T01:40:41.000Z,97946
2022-09-26T01:42:47.000Z,97945
2022-09-26T01:44:14.000Z,97945
2022-09-26T01:46:20.000Z,97947
2022-09-26T01:47:47.000Z,97948
2022-09-26T01:49:53.000Z,97949
2022-09-26T01:51:19.000Z,97949
2022-09-26T01:53:25.000Z,97948
2022-09-26T01:54:52.000Z,97949
2022-09-26T01:56:58.000Z,97945
2022-09-26T01:58:24.000Z,97939
2022-09-26T02:00:30.000Z,97939
2022-09-26T02:01:57.000Z,97936
2022-09-26T02:04:03.000Z,97933
2022-09-26T02:05:30.000Z,97932
2022-09-26T02:07:36.000Z,97929
2022-09-26T02:10:27.000Z,97924
2022-09-26T02:11:54.000Z,97923
2022-09-26T02:14:00.000Z,97924
2022-09-26T02:15:26.000Z,97921
2022-09-26T02:17:32.000Z,97921
2022-09-26T02:18:59.000Z,97917
2022-09-26T02:21:05.000Z,97917
2022-09-26T02:22:31.000Z,97910
2022-09-26T02:24:38.000Z,97914
2022-09-26T02:26:04.000Z,97915
2022-09-26T02:28:10.000Z,97912
2022-09-26T02:29:37.000Z,97911
2022-09-26T02:31:43.000Z,97913
2022-09-26T02:33:09.000Z,97911
2022-09-26T02:35:16.000Z,97906
2022-09-26T02:36:42.000Z,97905
2022-09-26T02:38:48.000Z,97903
2022-09-26T02:40:15.000Z,97901
2022-09-26T02:42:21.000Z,97898
2022-09-26T02:43:48.000Z,97896
2022-09-26T02:45:54.000Z,97893
2022-09-26T02:48:45.000Z,97892
2022-09-26T02:50:11.000Z,97891
2022-09-26T02:52:18.000Z,97889
2022-09-26T02:53:44.000Z,97889
2022-09-26T02:55:50.000Z,97883
2022-09-26T02:57:17.000Z,97889
2022-09-26T02:59:23.000Z,97885
2022-09-26T03:00:49.000Z,97885
2022-09-26T03:02:56.000Z,97884
2022-09-26T03:04:22.000Z,97882
2022-09-26T03:06:28.000Z,97880
2022-09-26T03:07:55.000Z,97877
2022-09-26T03:10:01.000Z,97872
2022-09-26T03:11:27.000Z,97874
2022-09-26T03:13:33.000Z,97865
2022-09-26T03:15:00.000Z,97860
2022-09-26T03:17:06.000Z,97857
2022-09-26T03:18:33.000Z,97856
2022-09-26T03:20:39.000Z,97851
2022-09-26T03:22:05.000Z,97849
2022-09-26T03:24:12.000Z,97841
2022-09-26T03:27:03.000Z,97833
2022-09-26T03:28:29.000Z,97837
2022-09-26T03:30:42.000Z,97836
2022-09-26T03:32:09.000Z,97832
2022-09-26T03:34:15.000Z,97830
2022-09-26T03:35:42.000Z,97832
2022-09-26T03:37:48.000Z,97827
2022-09-26T03:39:14.000Z,97829
2022-09-26T03:41:21.000Z,97830
2022-09-26T03:42:47.000Z,97831
2022-09-26T03:44:53.000Z,97828
2022-09-26T03:46:20.000Z,97825
2022-09-26T03:48:26.000Z,97827
2022-09-26T03:49:53.000Z,97824
2022-09-26T03:51:59.000Z,97822
2022-09-26T03:53:25.000Z,97818
2022-09-26T03:55:32.000Z,97817
2022-09-26T03:56:58.000Z,97811
2022-09-26T03:59:04.000Z,97805
2022-09-26T04:00:31.000Z,97790
2022-09-26T04:02:37.000Z,97788
2022-09-26T04:05:28.000Z,97784
2022-09-26T04:06:55.000Z,97786
2022-09-26T04:09:01.000Z,97785
2022-09-26T04:10:28.000Z,97785
2022-09-26T04:12:34.000Z,97783
2022-09-26T04:14:00.000Z,97786
2022-09-26T04:16:06.000Z,97779
2022-09-26T04:17:33.000Z,97780
2022-09-26T04:19:39.000Z,97776
2022-09-26T04:21:06.000Z,97779
2022-09-26T04:23:16.000Z,97778
2022-09-26T04:24:42.000Z,97776
2022-09-26T04:26:48.000Z,97773
2022-09-26T04:28:15.000Z,97773
2022-09-26T04:30:21.000Z,97769
2022-09-26T04:31:47.000Z,97769
2022-09-26T04:33:54.000Z,97764
2022-09-26T04:35:20.000Z,97761
2022-09-26T04:37:26.000Z,97753
2022-09-26T04:38:53.000Z,97754
2022-09-26T04:40:59.000Z,97753
2022-09-26T04:43:50.000Z,97750
2022-09-26T04:45:16.000Z,97750
2022-09-26T04:47:22.000Z,97747
2022-09-26T04:48:49.000Z,97746
2022-09-26T04:50:55.000Z,97746
2022-09-26T04:52:21.000Z,97741
2022-09-26T04:54:28.000Z,97740
2022-09-26T04:55:54.000Z,97744
2022-09-26T04:58:00.000Z,97739
2022-09-26T04:59:27.000Z,97738
2022-09-26T05:01:33.000Z,97738
2022-09-26T05:03:00.000Z,97733
2022-09-26T05:05:06.000Z,97727
2022-09-26T05:06:32.000Z,97722
2022-09-26T05:08:38.000Z,97721
2022-09-26T05:10:05.000Z,97721
2022-09-26T05:12:11.000Z,97718
2022-09-26T05:13:37.000Z,97714
2022-09-26T05:15:43.000Z,97713
2022-09-26T05:17:10.000Z,97715
2022-09-26T05:19:16.000Z,97710
2022-09-26T05:22:07.000Z,97712
2022-09-26T05:23:34.000Z,97710
2022-09-26T05:25:40.000Z,97706
2022-09-26T05:27:06.000Z,97705
2022-09-26T05:29:12.000Z,97705
2022-09-26T05:30:39.000Z,97707
2022-09-26T05:32:45.000Z,97707
2022-09-26T05:34:12.000Z,97706
2022-09-26T05:36:25.000Z,97701
2022-09-26T05:37:52.000Z,97700
2022-09-26T05:39:58.000Z,97698
2022-09-26T05:41:24.000Z,97692
2022-09-26T05:43:30.000Z,97690
2022-09-26T05:44:57.000Z,97689
2022-09-26T05:47:03.000Z,97692
2022-09-26T05:48:30.000Z,97688
2022-09-26T05:50:36.000Z,97683
2022-09-26T05:52:09.000Z,97679
2022-09-26T05:54:15.000Z,97679
2022-09-26T05:55:41.000Z,97678
2022-09-26T05:57:47.000Z,97679
2022-09-26T06:00:38.000Z,97679
2022-09-26T06:02:05.000Z,97675
2022-09-26T06:04:11.000Z,97670
2022-09-26T06:05:38.000Z,97670
2022-09-26T06:07:44.000Z,97670
2022-09-26T06:09:11.000Z,97674
2022-09-26T06:11:17.000Z,97671
2022-09-26T06:12:43.000Z,97666
2022-09-26T06:14:56.000Z,97664
2022-09-26T06:16:22.000Z,97667
2022-09-26T06:18:28.000Z,97664
2022-09-26T06:19:55.000Z,97661
2022-09-26T06:22:01.000Z,97662
2022-09-26T06:23:28.000Z,97661
2022-09-26T06:25:34.000Z,97659
2022-09-26T06:27:00.000Z,97653
2022-09-26T06:29:07.000Z,97653
2022-09-26T06:30:33.000Z,97656
2022-09-26T06:32:39.000Z,97653
2022-09-26T06:34:06.000Z,97653
2022-09-26T06:36:12.000Z,97651
2022-09-26T06:39:03.000Z,97654
2022-09-26T06:40:29.000Z,97652
2022-09-26T06:42:36.000Z,97652
2022-09-26T06:44:02.000Z,97652
2022-09-26T06:46:08.000Z,97653
2022-09-26T06:47:35.000Z,97652
2022-09-26T06:49:41.000Z,97646
2022-09-26T06:51:07.000Z,97647
2022-09-26T06:53:14.000Z,97642
2022-09-26T06:54:40.000Z,97646
2022-09-26T06:56:46.000Z,97638
2022-09-26T06:58:13.000Z,97641
2022-09-26T07:00:19.000Z,97636
2022-09-26T07:01:45.000Z,97633
2022-09-26T07:03:52.000Z,97632
2022-09-26T07:05:20.000Z,97638
2022-09-26T07:07:27.000Z,97631
2022-09-26T07:08:54.000Z,97629
2022-09-26T07:11:10.000Z,97626
2022-09-26T07:13:04.000Z,97619
2022-09-26T07:15:10.000Z,97624
2022-09-26T07:18:01.000Z,97623
2022-09-26T07:19:28.000Z,97624
2022-09-26T07:21:34.000Z,97617
2022-09-26T07:23:00.000Z,97618
2022-09-26T07:25:06.000Z,97618
2022-09-26T07:26:33.000Z,97620
2022-09-26T07:28:39.000Z,97615
2022-09-26T07:30:06.000Z,97619
2022-09-26T07:32:12.000Z,97613
2022-09-26T07:33:38.000Z,97613
2022-09-26T07:35:44.000Z,97612
2022-09-26T07:37:11.000Z,97606
2022-09-26T07:39:17.000Z,97606
2022-09-26T07:40:44.000Z,97603
2022-09-26T07:42:50.000Z,97610
2022-09-26T07:44:44.000Z,97608
2022-09-26T07:47:30.000Z,97605
2022-09-26T07:48:56.000Z,97600
2022-09-26T07:51:03.000Z,97603
2022-09-26T07:52:35.000Z,97601
2022-09-26T07:54:41.000Z,97603
2022-09-26T07:57:32.000Z,97600
2022-09-26T07:58:59.000Z,97601
2022-09-26T08:01:05.000Z,97600
2022-09-26T08:02:31.000Z,97596
2022-09-26T08:04:38.000Z,97596
2022-09-26T08:06:04.000Z,97595
2022-09-26T08:08:10.000Z,97589
2022-09-26T08:09:37.000Z,97596
2022-09-26T08:11:43.000Z,97591
2022-09-26T08:13:09.000Z,97590
2022-09-26T08:15:16.000Z,97590
2022-09-26T08:16:42.000Z,97590
2022-09-26T08:18:48.000Z,97592
2022-09-26T08:20:15.000Z,97586
2022-09-26T08:22:21.000Z,97578
2022-09-26T08:23:48.000Z,97578
2022-09-26T08:25:54.000Z,97579
2022-09-26T08:27:20.000Z,97576
2022-09-26T08:29:26.000Z,97580
2022-09-26T08:30:53.000Z,97582
2022-09-26T08:32:59.000Z,97583
2022-09-26T08:35:50.000Z,97579
2022-09-26T08:37:17.000Z,97580
2022-09-26T08:39:23.000Z,97574
2022-09-26T08:40:49.000Z,97571
2022-09-26T08:42:56.000Z,97573
2022-09-26T08:44:22.000Z,97570
2022-09-26T08:46:28.000Z,97569
2022-09-26T08:47:55.000Z,97576
2022-09-26T08:50:01.000Z,97570
2022-09-26T08:51:27.000Z,97565
2022-09-26T08:53:35.000Z,97567
2022-09-26T08:55:01.000Z,97566
2022-09-26T08:57:08.000Z,97564
2022-09-26T08:58:34.000Z,97560
2022-09-26T09:00:40.000Z,97565
2022-09-26T09:02:07.000Z,97559
2022-09-26T09:04:13.000Z,97561
2022-09-26T09:05:39.000Z,97559
2022-09-26T09:07:46.000Z,97550
2022-09-26T09:09:12.000Z,97553
2022-09-26T09:11:18.000Z,97544
2022-09-26T09:14:10.000Z,97544
2022-09-26T09:15:36.000Z,97545
2022-09-26T09:17:42.000Z,97537
2022-09-26T09:19:09.000Z,97535
2022-09-26T09:21:15.000Z,97535
2022-09-26T09:22:42.000Z,97530
2022-09-26T09:24:48.000Z,97529
2022-09-26T09:28:50.000Z,97540
2022-09-26T09:30:17.000Z,97527
2022-09-26T09:32:23.000Z,97528
2022-09-26T09:33:50.000Z,97527
2022-09-26T09:35:56.000Z,97524
2022-09-26T09:37:22.000Z,97520
2022-09-26T09:39:28.000Z,97531
2022-09-26T09:40:55.000Z,97523
2022-09-26T09:43:01.000Z,97522
2022-09-26T09:44:28.000Z,97526
2022-09-26T09:46:34.000Z,97515
2022-09-26T09:48:01.000Z,97520
2022-09-26T09:50:07.000Z,97515
2022-09-26T09:52:58.000Z,97511
2022-09-26T09:54:24.000Z,97512
2022-09-26T09:56:31.000Z,97506
2022-09-26T09:57:57.000Z,97504
2022-09-26T10:00:03.000Z,97506
2022-09-26T10:01:30.000Z,97512
2022-09-26T10:03:36.000Z,97504
2022-09-26T10:05:02.000Z,97497
2022-09-26T10:07:08.000Z,97494
2022-09-26T10:08:35.000Z,97495
2022-09-26T10:10:41.000Z,97500
2022-09-26T10:12:08.000Z,97490
2022-09-26T10:14:14.000Z,97492
2022-09-26T10:15:40.000Z,97488
2022-09-26T10:17:47.000Z,97485
2022-09-26T10:19:49.000Z,97486
2022-09-26T10:21:55.000Z,97487
2022-09-26T10:23:21.000Z,97486
2022-09-26T10:25:27.000Z,97473
2022-09-26T10:26:54.000Z,97482
2022-09-26T10:29:00.000Z,97479
2022-09-26T10:31:51.000Z,97475
2022-09-26T10:33:18.000Z,97479
2022-09-26T10:35:24.000Z,97474
2022-09-26T10:36:51.000Z,97474
2022-09-26T10:38:57.000Z,97466
2022-09-26T10:40:23.000Z,97466
2022-09-26T10:42:30.000Z,97472
2022-09-26T10:43:58.000Z,97470
2022-09-26T10:46:04.000Z,97465
2022-09-26T10:47:31.000Z,97460
2022-09-26T10:49:37.000Z,97464
2022-09-26T10:51:04.000Z,97468
2022-09-26T10:53:10.000Z,97450
2022-09-26T10:54:36.000Z,97466
2022-09-26T10:56:42.000Z,97466
2022-09-26T10:58:09.000Z,97461
2022-09-26T11:00:19.000Z,97455
2022-09-26T11:01:46.000Z,97446
2022-09-26T11:03:52.000Z,97447
2022-09-26T11:05:19.000Z,97436
2022-09-26T11:07:25.000Z,97438
2022-09-26T11:10:16.000Z,97439
2022-09-26T11:11:42.000Z,97438
2022-09-26T11:13:49.000Z,97437
2022-09-26T11:15:15.000Z,97430
2022-09-26T11:17:21.000Z,97429
2022-09-26T11:18:48.000Z,97424
2022-09-26T11:20:54.000Z,97432
2022-09-26T11:22:20.000Z,97433
2022-09-26T11:24:26.000Z,97431
2022-09-26T11:25:53.000Z,97423
2022-09-26T11:28:04.000Z,97429
2022-09-26T11:29:30.000Z,97430
2022-09-26T11:31:36.000Z,97415
2022-09-26T11:33:03.000Z,97417
2022-09-26T11:35:09.000Z,97413
2022-09-26T11:36:36.000Z,97413
2022-09-26T11:38:42.000Z,97411
2022-09-26T11:40:08.000Z,97404
2022-09-26T11:42:16.000Z,97409
2022-09-26T11:43:42.000Z,97404
2022-09-26T11:45:48.000Z,97401
2022-09-26T11:48:39.000Z,97392
2022-09-26T11:50:06.000Z,97399
2022-09-26T11:52:12.000Z,97403
2022-09-26T11:53:38.000Z,97399
2022-09-26T11:55:45.000Z,97380
2022-09-26T11:57:11.000Z,97395
2022-09-26T11:59:17.000Z,97390
2022-09-26T12:00:44.000Z,97393
2022-09-26T12:02:50.000Z,97385
2022-09-26T12:04:16.000Z,97389
2022-09-26T12:06:23.000Z,97382
2022-09-26T12:07:49.000Z,97387
2022-09-26T12:09:56.000Z,97387
2022-09-26T12:11:22.000Z,97386
2022-09-26T12:13:28.000Z,97376
2022-09-26T12:14:55.000Z,97372
2022-09-26T12:17:01.000Z,97368
2022-09-26T12:18:28.000Z,97371
2022-09-26T12:20:34.000Z,97371
2022-09-26T12:22:00.000Z,97369
2022-09-26T12:24:06.000Z,97352
2022-09-26T12:26:58.000Z,97351
2022-09-26T12:28:24.000Z,97349
2022-09-26T12:30:30.000Z,97349
2022-09-26T12:31:57.000Z,97348
2022-09-26T12:34:03.000Z,97345
2022-09-26T12:35:29.000Z,97343
2022-09-26T12:37:35.000Z,97331
2022-09-26T12:39:02.000Z,97336
2022-09-26T12:41:08.000Z,97334
2022-09-26T12:42:34.000Z,97330
2022-09-26T12:44:40.000Z,97330
2022-09-26T12:46:07.000Z,97334
2022-09-26T12:48:13.000Z,97329
2022-09-26T12:49:40.000Z,97335
2022-09-26T12:51:46.000Z,97337
2022-09-26T12:53:12.000Z,97328
2022-09-26T12:55:18.000Z,97337
2022-09-26T12:56:45.000Z,97326
2022-09-26T12:58:51.000Z,97325
2022-09-26T13:00:17.000Z,97329
2022-09-26T13:02:23.000Z,97324
2022-09-26T13:05:15.000Z,97320
2022-09-26T13:06:41.000Z,97316
2022-09-26T13:09:08.000Z,97311
2022-09-26T13:10:34.000Z,97307
2022-09-26T13:12:41.000Z,97306
2022-09-26T13:14:07.000Z,97306
2022-09-26T13:16:13.000Z,97300
2022-09-26T13:17:40.000Z,97293
2022-09-26T13:19:46.000Z,97289
2022-09-26T13:21:12.000Z,97283
2022-09-26T13:23:18.000Z,97291
2022-09-26T13:24:45.000Z,97283
2022-09-26T13:26:51.000Z,97284
2022-09-26T13:28:18.000Z,97285
2022-09-26T13:30:24.000Z,97285
2022-09-26T13:31:50.000Z,97279
2022-09-26T13:33:56.000Z,97281
2022-09-26T13:35:23.000Z,97278
2022-09-26T13:37:29.000Z,97271
2022-09-26T13:38:56.000Z,97269
2022-09-26T13:41:02.000Z,97270
2022-09-26T13:43:54.000Z,97265
2022-09-26T13:45:20.000Z,97261
2022-09-26T13:47:26.000Z,97261
2022-09-26T13:48:53.000Z,97265
2022-09-26T13:50:59.000Z,97264
2022-09-26T13:52:25.000Z,97259
2022-09-26T13:54:31.000Z,97252
2022-09-26T13:55:58.000Z,97265
2022-09-26T13:58:04.000Z,97254
2022-09-26T13:59:30.000Z,97258
2022-09-26T14:01:36.000Z,97259
2022-09-26T14:03:03.000Z,97256
2022-09-26T14:05:10.000Z,97258
2022-09-26T14:06:37.000Z,97250
2022-09-26T14:08:43.000Z,97250
2022-09-26T14:10:10.000Z,97251
2022-09-26T14:12:16.000Z,97251
2022-09-26T14:13:43.000Z,97250
2022-09-26T14:15:49.000Z,97248
2022-09-26T14:17:16.000Z,97245
2022-09-26T14:19:26.000Z,97241
2022-09-26T14:22:17.000Z,97234
2022-09-26T14:23:43.000Z,97234
2022-09-26T14:25:50.000Z,97224
2022-09-26T14:27:16.000Z,97231
2022-09-26T14:29:22.000Z,97223
2022-09-26T14:30:49.000Z,97227
2022-09-26T14:32:55.000Z,97222
2022-09-26T14:34:22.000Z,97225
2022-09-26T14:36:28.000Z,97216
2022-09-26T14:37:54.000Z,97219
2022-09-26T14:40:00.000Z,97220
2022-09-26T14:41:27.000Z,97215
2022-09-26T14:43:33.000Z,97215
2022-09-26T14:44:59.000Z,97216
2022-09-26T14:47:05.000Z,97217
2022-09-26T14:48:32.000Z,97218
2022-09-26T14:50:38.000Z,97210
2022-09-26T14:52:04.000Z,97211
2022-09-26T14:54:17.000Z,97205
2022-09-26T14:55:43.000Z,97202
2022-09-26T14:57:49.000Z,97192
2022-09-26T15:00:40.000Z,97188
2022-09-26T15:02:07.000Z,97183
2022-09-26T15:04:13.000Z,97194
2022-09-26T15:05:40.000Z,97184
2022-09-26T15:07:46.000Z,97187
2022-09-26T15:09:12.000Z,97178
2022-09-26T15:11:18.000Z,97175
2022-09-26T15:12:45.000Z,97173
2022-09-26T15:14:51.000Z,97170
2022-09-26T15:16:17.000Z,97168
2022-09-26T15:18:24.000Z,97165
2022-09-26T15:19:50.000Z,97159
2022-09-26T15:21:56.000Z,97150
2022-09-26T15:23:23.000Z,97150
2022-09-26T15:25:29.000Z,97148
2022-09-26T15:26:55.000Z,97145
2022-09-26T15:29:01.000Z,97139
2022-09-26T15:30:28.000Z,97132
2022-09-26T15:32:34.000Z,97125
2022-09-26T15:34:01.000Z,97121
2022-09-26T15:36:07.000Z,97120
2022-09-26T15:38:58.000Z,97119
2022-09-26T15:40:24.000Z,97113
2022-09-26T15:42:30.000Z,97109
2022-09-26T15:43:57.000Z,97112
2022-09-26T15:46:03.000Z,97100
2022-09-26T15:47:36.000Z,97096
2022-09-26T15:49:42.000Z,97095
2022-09-26T15:51:08.000Z,97093
2022-09-26T15:53:14.000Z,97099
2022-09-26T15:54:41.000Z,97085
2022-09-26T15:56:47.000Z,97090
2022-09-26T15:58:13.000Z,97082
2022-09-26T16:00:20.000Z,97078
2022-09-26T16:01:46.000Z,97075
2022-09-26T16:03:52.000Z,97071
2022-09-26T16:05:19.000Z,97070
2022-09-26T16:07:25.000Z,97074
2022-09-26T16:08:51.000Z,97072
2022-09-26T16:10:58.000Z,97068
2022-09-26T16:12:24.000Z,97068
2022-09-26T16:14:30.000Z,97068
2022-09-26T16:17:21.000Z,97068
2022-09-26T16:18:48.000Z,97063
2022-09-26T16:20:54.000Z,97064
2022-09-26T16:22:20.000Z,97070
2022-09-26T16:24:27.000Z,97063
2022-09-26T16:25:53.000Z,97067
2022-09-26T16:27:59.000Z,97058
2022-09-26T16:29:26.000Z,97063
2022-09-26T16:31:32.000Z,97060
2022-09-26T16:32:58.000Z,97064
2022-09-26T16:35:04.000Z,97062
2022-09-26T16:36:31.000Z,97056
2022-09-26T16:38:37.000Z,97060
2022-09-26T16:40:04.000Z,97056
2022-09-26T16:42:10.000Z,97061
2022-09-26T16:43:36.000Z,97060
2022-09-26T16:45:42.000Z,97065
2022-09-26T16:47:09.000Z,97061
2022-09-26T16:49:15.000Z,97062
2022-09-26T16:50:41.000Z,97057
2022-09-26T16:52:47.000Z,97058
2022-09-26T16:55:39.000Z,97049
2022-09-26T16:57:05.000Z,97044
2022-09-26T16:59:11.000Z,97042
2022-09-26T17:00:38.000Z,97044
2022-09-26T17:02:44.000Z,97039
2022-09-26T17:04:10.000Z,97034
2022-09-26T17:06:17.000Z,97029
2022-09-26T17:07:43.000Z,97022
2022-09-26T17:09:49.000Z,97022
2022-09-26T17:11:16.000Z,97021
2022-09-26T17:13:22.000Z,97014
2022-09-26T17:14:48.000Z,97019
2022-09-26T17:16:54.000Z,97015
2022-09-26T17:18:21.000Z,97011
2022-09-26T17:20:27.000Z,97006
2022-09-26T17:21:54.000Z,97003
2022-09-26T17:24:00.000Z,96998
2022-09-26T17:25:26.000Z,96997
2022-09-26T17:27:32.000Z,96998
2022-09-26T17:28:59.000Z,96998
2022-09-26T17:31:05.000Z,96997
2022-09-26T17:33:56.000Z,96994
2022-09-26T17:35:23.000Z,96992
2022-09-26T17:37:29.000Z,96988
2022-09-26T17:38:55.000Z,96982
2022-09-26T17:41:02.000Z,96982
2022-09-26T17:42:28.000Z,96977
2022-09-26T17:44:34.000Z,96977
2022-09-26T17:46:01.000Z,96976
2022-09-26T17:48:07.000Z,96976
2022-09-26T17:49:33.000Z,96971
2022-09-26T17:51:40.000Z,96969
2022-09-26T17:53:06.000Z,96971
2022-09-26T17:55:12.000Z,96965
2022-09-26T17:56:39.000Z,96967
2022-09-26T17:58:45.000Z,96963
2022-09-26T18:00:11.000Z,96958
2022-09-26T18:02:17.000Z,96959
2022-09-26T18:03:44.000Z,96957
2022-09-26T18:05:50.000Z,96955
2022-09-26T18:07:17.000Z,96956
2022-09-26T18:09:23.000Z,96953
2022-09-26T18:12:14.000Z,96949
2022-09-26T18:13:40.000Z,96942
2022-09-26T18:15:46.000Z,96942
2022-09-26T18:17:13.000Z,96940
2022-09-26T18:19:19.000Z,96946
2022-09-26T18:20:46.000Z,96943
2022-09-26T18:22:52.000Z,96942
2022-09-26T18:24:18.000Z,96943
2022-09-26T18:26:26.000Z,96939
2022-09-26T18:27:52.000Z,96945
2022-09-26T18:29:58.000Z,96944
2022-09-26T18:31:25.000Z,96944
2022-09-26T18:33:31.000Z,96942
2022-09-26T18:35:04.000Z,96944
2022-09-26T18:37:10.000Z,96948
2022-09-26T18:38:36.000Z,96945
2022-09-26T18:40:42.000Z,96944
2022-09-26T18:42:09.000Z,96940
2022-09-26T18:44:15.000Z,96935
2022-09-26T18:45:42.000Z,96933
2022-09-26T18:47:48.000Z,96934
2022-09-26T18:50:39.000Z,96927
2022-09-26T18:52:06.000Z,96919
2022-09-26T18:54:12.000Z,96930
2022-09-26T18:55:39.000Z,96929
2022-09-26T18:57:45.000Z,96925
2022-09-26T18:59:11.000Z,96926
2022-09-26T19:01:18.000Z,96923
2022-09-26T19:02:44.000Z,96926
2022-09-26T19:04:51.000Z,96921
2022-09-26T19:06:17.000Z,96918
2022-09-26T19:08:23.000Z,96920
2022-09-26T19:09:50.000Z,96921
2022-09-26T19:11:56.000Z,96915
2022-09-26T19:13:22.000Z,96913
2022-09-26T19:15:33.000Z,96911
2022-09-26T19:17:00.000Z,96919
2022-09-26T19:19:06.000Z,96915
2022-09-26T19:20:32.000Z,96916
2022-09-26T19:22:38.000Z,96919
2022-09-26T19:24:05.000Z,96920
2022-09-26T19:26:11.000Z,96923
2022-09-26T19:29:03.000Z,96923
2022-09-26T19:30:29.000Z,96927
2022-09-26T19:32:36.000Z,96926
2022-09-26T19:34:02.000Z,96933
2022-09-26T19:36:08.000Z,96927
2022-09-26T19:37:35.000Z,96926
2022-09-26T19:39:41.000Z,96924
2022-09-26T19:41:07.000Z,96924
2022-09-26T19:43:13.000Z,96923
2022-09-26T19:44:40.000Z,96921
2022-09-26T19:46:46.000Z,96913
2022-09-26T19:48:13.000Z,96914
2022-09-26T19:50:19.000Z,96913
2022-09-26T19:51:45.000Z,96912
2022-09-26T19:53:51.000Z,96915
2022-09-26T19:55:18.000Z,96909
2022-09-26T19:57:24.000Z,96902
2022-09-26T19:58:50.000Z,96900
2022-09-26T20:00:57.000Z,96892
2022-09-26T20:02:23.000Z,96891
2022-09-26T20:04:29.000Z,96893
2022-09-26T20:07:21.000Z,96886
2022-09-26T20:08:47.000Z,96896
2022-09-26T20:10:53.000Z,96874
2022-09-26T20:12:20.000Z,96879
2022-09-26T20:14:26.000Z,96870
2022-09-26T20:15:52.000Z,96873
2022-09-26T20:17:58.000Z,96868
2022-09-26T20:19:25.000Z,96868
2022-09-26T20:21:31.000Z,96864
2022-09-26T20:22:57.000Z,96859
2022-09-26T20:25:03.000Z,96872
2022-09-26T20:26:30.000Z,96854
2022-09-26T20:28:36.000Z,96853
2022-09-26T20:30:02.000Z,96855
2022-09-26T20:32:09.000Z,96840
2022-09-26T20:33:41.000Z,96843
2022-09-26T20:35:47.000Z,96831
2022-09-26T20:37:14.000Z,96835
2022-09-26T20:39:20.000Z,96827
2022-09-26T20:40:46.000Z,96823
2022-09-26T20:42:53.000Z,96820
2022-09-26T20:45:44.000Z,96816
2022-09-26T20:47:10.000Z,96811
2022-09-26T20:49:17.000Z,96808
2022-09-26T20:50:43.000Z,96805
2022-09-26T20:52:49.000Z,96799
2022-09-26T20:54:16.000Z,96809
2022-09-26T20:56:22.000Z,96808
2022-09-26T20:57:48.000Z,96793
2022-09-26T20:59:54.000Z,96793
2022-09-26T21:01:21.000Z,96794
2022-09-26T21:03:27.000Z,96791
2022-09-26T21:04:54.000Z,96789
2022-09-26T21:07:00.000Z,96787
2022-09-26T21:08:26.000Z,96789
2022-09-26T21:10:32.000Z,96777
2022-09-26T21:11:59.000Z,96774
2022-09-26T21:14:05.000Z,96773
2022-09-26T21:15:32.000Z,96773
2022-09-26T21:17:38.000Z,96766
2022-09-26T21:19:04.000Z,96759
2022-09-26T21:21:10.000Z,96758
2022-09-26T21:24:01.000Z,96751
2022-09-26T21:25:28.000Z,96753
2022-09-26T21:27:34.000Z,96751
2022-09-26T21:29:00.000Z,96750
2022-09-26T21:31:07.000Z,96748
2022-09-26T21:32:33.000Z,96749
2022-09-26T21:34:39.000Z,96744
2022-09-26T21:36:06.000Z,96744
2022-09-26T21:38:12.000Z,96737
2022-09-26T21:39:38.000Z,96732
2022-09-26T21:41:45.000Z,96729
2022-09-26T21:43:11.000Z,96728
2022-09-26T21:45:17.000Z,96728
2022-09-26T21:46:44.000Z,96729
2022-09-26T21:48:50.000Z,96727
2022-09-26T21:50:16.000Z,96720
2022-09-26T21:52:23.000Z,96720
2022-09-26T21:53:49.000Z,96714
2022-09-26T21:55:55.000Z,96710
2022-09-26T21:57:22.000Z,96711
2022-09-26T21:59:28.000Z,96706
2022-09-26T22:02:19.000Z,96705
2022-09-26T22:03:45.000Z,96700
2022-09-26T22:05:52.000Z,96704
2022-09-26T22:07:18.000Z,96695
2022-09-26T22:09:24.000Z,96695
2022-09-26T22:10:51.000Z,96691
2022-09-26T22:12:57.000Z,96683
2022-09-26T22:14:23.000Z,96691
2022-09-26T22:16:29.000Z,96680
2022-09-26T22:17:56.000Z,96669
2022-09-26T22:20:02.000Z,96672
2022-09-26T22:21:28.000Z,96665
2022-09-26T22:23:34.000Z,96657
2022-09-26T22:25:01.000Z,96655
2022-09-26T22:27:07.000Z,96654
2022-09-26T22:28:34.000Z,96653
2022-09-26T22:30:40.000Z,96643
2022-09-26T22:32:06.000Z,96641
2022-09-26T22:34:13.000Z,96632
2022-09-26T22:35:39.000Z,96627
2022-09-26T22:37:45.000Z,96630
2022-09-26T22:40:36.000Z,96624
2022-09-26T22:42:03.000Z,96628
2022-09-26T22:44:09.000Z,96630
2022-09-26T22:45:36.000Z,96631
2022-09-26T22:47:42.000Z,96620
2022-09-26T22:49:08.000Z,96627
2022-09-26T22:51:14.000Z,96627
2022-09-26T22:52:41.000Z,96610
2022-09-26T22:54:47.000Z,96606
2022-09-26T22:56:13.000Z,96602
2022-09-26T22:58:19.000Z,96600
2022-09-26T22:59:46.000Z,96606
2022-09-26T23:01:52.000Z,96603
2022-09-26T23:03:19.000Z,96602
2022-09-26T23:05:25.000Z,96595
2022-09-26T23:06:51.000Z,96595
2022-09-26T23:08:57.000Z,96590
2022-09-26T23:10:24.000Z,96588
2022-09-26T23:12:30.000Z,96585
2022-09-26T23:13:56.000Z,96585
2022-09-26T23:16:02.000Z,96587
2022-09-26T23:18:54.000Z,96588
2022-09-26T23:20:20.000Z,96585
2022-09-26T23:22:26.000Z,96585
2022-09-26T23:23:53.000Z,96582
2022-09-26T23:25:59.000Z,96578
2022-09-26T23:27:25.000Z,96569
2022-09-26T23:29:31.000Z,96573
2022-09-26T23:30:58.000Z,96569
2022-09-26T23:33:04.000Z,96567
2022-09-26T23:34:31.000Z,96568
2022-09-26T23:36:37.000Z,96564